Time;durP1;ratioP1;P1;durP2;ratioP2;P2;SDS_P1;SDS_P2;PMS_P1;PMS_P2;Temp;Humidity;BMP_temperature;BMP_pressure;BME280_temperature;BME280_humidity;BME280_pressure;Samples;Min_cycle;Max_cycle;Signal;HPM_P1;HPM_P2
2023/02/14 00:00:53;;;;;;;25.92;15.70;;;;;;;;;;6133626;23;20346;-84
2023/02/14 00:03:23;;;;;;;23.85;17.83;;;;;;;;;;6151410;23;20025;-83
2023/02/14 00:05:50;;;;;;;22.98;16.35;;;;;;;;;;6151568;23;20025;-83
2023/02/14 00:08:19;;;;;;;22.27;17.98;;;;;;;;;;6151802;23;20029;-83
2023/02/14 00:10:47;;;;;;;26.77;21.25;;;;;;;;;;6150107;23;20024;-84
2023/02/14 00:13:15;;;;;;;25.98;16.48;;;;;;;;;;6150328;23;20014;-83
2023/02/14 00:15:41;;;;;;;27.60;18.50;;;;;;;;;;6153042;23;20013;-83
2023/02/14 00:18:09;;;;;;;24.38;16.15;;;;;;;;;;6150824;23;20010;-83
2023/02/14 00:20:36;;;;;;;23.85;16.33;;;;;;;;;;6152259;23;20024;-84
2023/02/14 00:23:03;;;;;;;23.63;17.17;;;;;;;;;;6152090;23;20013;-84
2023/02/14 00:25:34;;;;;;;23.48;16.92;;;;;;;;;;6151511;23;20017;-84
2023/02/14 00:28:01;;;;;;;19.67;14.02;;;;;;;;;;6126564;23;20018;-84
2023/02/14 00:30:34;;;;;;;20.25;15.43;;;;;;;;;;6153319;23;20037;-84
2023/02/14 00:33:05;;;;;;;24.13;17.23;;;;;;;;;;6149748;23;20020;-83
2023/02/14 00:35:37;;;;;;;29.98;17.65;;;;;;;;;;6159818;23;20013;-83
2023/02/14 00:38:05;;;;;;;22.95;16.63;;;;;;;;;;6151688;23;20010;-83
2023/02/14 00:40:34;;;;;;;21.02;16.20;;;;;;;;;;6151992;23;20020;-84
2023/02/14 00:43:01;;;;;;;24.30;17.13;;;;;;;;;;6125209;23;20574;-83
2023/02/14 00:45:32;;;;;;;18.02;15.55;;;;;;;;;;6152490;23;20032;-84
2023/02/14 00:48:00;;;;;;;39.78;27.60;;;;;;;;;;6161044;23;20331;-83
2023/02/14 00:50:27;;;;;;;34.70;23.15;;;;;;;;;;6160304;23;20018;-83
2023/02/14 00:52:55;;;;;;;43.63;29.92;;;;;;;;;;6154414;23;20048;-84
2023/02/14 00:55:24;;;;;;;35.22;23.05;;;;;;;;;;6155650;23;20533;-86
2023/02/14 00:57:54;;;;;;;31.55;23.10;;;;;;;;;;6156578;23;20024;-85
2023/02/14 01:00:22;;;;;;;47.20;28.30;;;;;;;;;;6132159;23;20017;-85
2023/02/14 01:02:53;;;;;;;37.70;28.90;;;;;;;;;;6131406;23;20020;-85
2023/02/14 01:05:20;;;;;;;35.63;29.00;;;;;;;;;;6131567;23;20380;-85
2023/02/14 01:07:48;;;;;;;38.85;29.88;;;;;;;;;;6157263;23;20021;-86
2023/02/14 01:10:17;;;;;;;42.67;28.95;;;;;;;;;;6157228;23;20040;-85
2023/02/14 01:12:44;;;;;;;40.45;30.40;;;;;;;;;;6155667;23;20017;-85
2023/02/14 01:15:12;;;;;;;37.42;26.95;;;;;;;;;;6154461;23;20021;-85
2023/02/14 01:17:39;;;;;;;38.28;25.88;;;;;;;;;;6131273;23;20032;-86
2023/02/14 01:20:10;;;;;;;35.22;23.17;;;;;;;;;;6183388;23;20017;-86
2023/02/14 01:22:38;;;;;;;35.55;24.55;;;;;;;;;;6183061;23;20020;-86
2023/02/14 01:25:06;;;;;;;42.67;26.77;;;;;;;;;;6184551;23;20017;-85
2023/02/14 01:27:33;;;;;;;36.47;25.10;;;;;;;;;;6157133;23;20017;-86
2023/02/14 01:30:00;;;;;;;32.92;21.33;;;;;;;;;;6159586;23;20020;-86
2023/02/14 01:32:30;;;;;;;27.95;21.30;;;;;;;;;;6159674;23;20021;-86
2023/02/14 01:35:03;;;;;;;29.05;21.30;;;;;;;;;;6184079;23;20024;-86
2023/02/14 01:37:33;;;;;;;28.90;22.88;;;;;;;;;;6169867;23;20353;-86
2023/02/14 01:40:01;;;;;;;24.83;20.13;;;;;;;;;;6168296;23;20023;-86
2023/02/14 01:42:28;;;;;;;26.63;17.27;;;;;;;;;;6186817;23;20016;-83
2023/02/14 01:44:59;;;;;;;26.83;19.13;;;;;;;;;;6180513;23;20023;-84
2023/02/14 01:47:27;;;;;;;30.13;18.52;;;;;;;;;;6140755;23;20020;-84
2023/02/14 01:49:57;;;;;;;28.85;18.98;;;;;;;;;;6133132;23;20017;-85
2023/02/14 01:52:29;;;;;;;28.55;21.88;;;;;;;;;;6162518;23;20036;-85
2023/02/14 01:55:00;;;;;;;26.10;18.52;;;;;;;;;;6164741;23;20032;-85
2023/02/14 01:57:33;;;;;;;31.10;18.92;;;;;;;;;;6164751;23;20023;-85
2023/02/14 02:02:45;;;;;;;27.67;17.75;;;;;;;;;;6185293;23;20021;-86
2023/02/14 02:05:13;;;;;;;25.17;19.67;;;;;;;;;;6133236;23;20017;-86
2023/02/14 02:07:41;;;;;;;29.25;20.08;;;;;;;;;;6132854;23;20021;-85
2023/02/14 02:10:11;;;;;;;24.67;18.60;;;;;;;;;;6132550;23;20024;-86
2023/02/14 02:12:38;;;;;;;24.60;17.52;;;;;;;;;;6132531;23;20032;-86
2023/02/14 02:15:08;;;;;;;27.08;20.42;;;;;;;;;;6168410;23;20027;-86
2023/02/14 02:17:43;;;;;;;31.85;19.75;;;;;;;;;;6194005;23;20013;-85
2023/02/14 02:20:42;;;;;;;27.83;19.00;;;;;;;;;;6168452;23;20013;-86
2023/02/14 02:23:45;;;;;;;24.70;19.95;;;;;;;;;;6154682;23;20024;-86
2023/02/14 02:26:52;;;;;;;27.13;17.77;;;;;;;;;;6183666;23;20017;-86
2023/02/14 02:29:50;;;;;;;27.20;17.58;;;;;;;;;;6134642;23;20028;-86
2023/02/14 02:32:32;;;;;;;24.80;16.42;;;;;;;;;;6163766;23;20020;-86
2023/02/14 02:35:14;;;;;;;29.80;17.90;;;;;;;;;;6134116;23;20024;-86
2023/02/14 02:37:56;;;;;;;22.13;17.67;;;;;;;;;;6167342;23;20020;-85
2023/02/14 02:40:31;;;;;;;30.15;20.42;;;;;;;;;;6194467;23;20020;-85
2023/02/14 02:43:05;;;;;;;32.20;18.75;;;;;;;;;;6129246;23;20021;-85
2023/02/14 02:46:46;;;;;;;25.40;19.55;;;;;;;;;;6168084;23;20013;-85
2023/02/14 02:48:35;;;;;;;26.75;19.05;;;;;;;;;;6131604;23;20021;-85
2023/02/14 02:53:55;;;;;;;28.13;16.92;;;;;;;;;;6167814;23;20020;-85
2023/02/14 02:56:45;;;;;;;25.75;19.73;;;;;;;;;;6133261;23;20020;-86
2023/02/14 02:59:18;;;;;;;24.52;16.35;;;;;;;;;;6168553;23;20009;-85
2023/02/14 03:01:52;;;;;;;27.60;18.20;;;;;;;;;;6166143;23;20028;-85
2023/02/14 03:09:56;;;;;;;23.27;16.65;;;;;;;;;;6171688;23;20019;-84
2023/02/14 03:12:42;;;;;;;25.77;18.95;;;;;;;;;;6157377;23;20021;-85
2023/02/14 03:15:22;;;;;;;26.23;18.23;;;;;;;;;;6167683;23;20027;-85
2023/02/14 03:17:58;;;;;;;24.33;17.83;;;;;;;;;;6131441;23;20016;-85
2023/02/14 03:20:33;;;;;;;26.73;16.92;;;;;;;;;;6194511;23;20013;-85
2023/02/14 03:23:04;;;;;;;23.80;17.00;;;;;;;;;;6155984;23;20024;-85
2023/02/14 03:25:37;;;;;;;;;;;;;;;;;;6135101;23;20024;-85
2023/02/14 03:28:13;;;;;;;27.63;18.23;;;;;;;;;;6166090;23;19916;-85
2023/02/14 03:30:46;;;;;;;32.20;19.67;;;;;;;;;;6133737;23;20017;-86
2023/02/14 03:33:19;;;;;;;24.85;17.83;;;;;;;;;;6153874;23;20338;-85
2023/02/14 03:35:55;;;;;;;29.58;21.85;;;;;;;;;;6167824;23;20024;-86
2023/02/14 03:38:27;;;;;;;27.75;19.55;;;;;;;;;;6164996;23;20013;-85
2023/02/14 03:40:57;;;;;;;32.25;21.48;;;;;;;;;;6132984;23;20017;-85
2023/02/14 03:43:27;;;;;;;29.55;21.58;;;;;;;;;;6156759;23;20013;-85
2023/02/14 03:45:58;;;;;;;32.33;21.08;;;;;;;;;;6156998;23;20013;-85
2023/02/14 03:48:28;;;;;;;27.70;18.00;;;;;;;;;;6131024;23;20013;-85
2023/02/14 03:50:56;;;;;;;33.35;21.08;;;;;;;;;;6157401;23;20017;-85
2023/02/14 03:53:30;;;;;;;30.27;18.95;;;;;;;;;;6182808;23;20043;-85
2023/02/14 03:56:02;;;;;;;25.38;19.45;;;;;;;;;;6191950;23;20020;-85
2023/02/14 03:58:33;;;;;;;29.92;19.27;;;;;;;;;;6193177;23;20071;-85
2023/02/14 04:01:05;;;;;;;34.65;22.67;;;;;;;;;;6157515;23;20021;-85
2023/02/14 04:03:33;;;;;;;28.52;21.30;;;;;;;;;;6155372;23;20032;-85
2023/02/14 04:06:00;;;;;;;34.78;24.02;;;;;;;;;;6157468;23;20021;-85
2023/02/14 04:08:29;;;;;;;36.95;22.15;;;;;;;;;;6157091;23;20065;-85
2023/02/14 04:10:58;;;;;;;25.17;19.23;;;;;;;;;;6167141;23;20040;-85
2023/02/14 04:13:26;;;;;;;33.42;22.90;;;;;;;;;;6156391;23;20024;-85
2023/02/14 04:15:53;;;;;;;32.85;21.98;;;;;;;;;;6192666;23;20021;-85
2023/02/14 04:21:08;;;;;;;31.55;19.92;;;;;;;;;;6165985;23;20014;-85
2023/02/14 04:23:36;;;;;;;28.23;19.35;;;;;;;;;;6182959;23;20036;-85
2023/02/14 04:26:04;;;;;;;29.05;20.42;;;;;;;;;;6183094;23;20016;-85
2023/02/14 04:28:32;;;;;;;30.92;23.80;;;;;;;;;;6132067;23;20017;-85
2023/02/14 04:31:01;;;;;;;37.10;21.52;;;;;;;;;;6182723;23;20013;-85
2023/02/14 04:33:28;;;;;;;30.70;18.13;;;;;;;;;;6183098;23;20013;-85
2023/02/14 04:36:00;;;;;;;36.05;23.58;;;;;;;;;;6131593;23;20024;-86
2023/02/14 04:38:27;;;;;;;28.15;19.85;;;;;;;;;;6181827;23;20009;-86
2023/02/14 04:40:56;;;;;;;33.63;20.67;;;;;;;;;;6167789;23;20013;-86
2023/02/14 04:43:26;;;;;;;38.38;28.35;;;;;;;;;;6154732;23;20031;-86
2023/02/14 04:45:53;;;;;;;31.75;23.52;;;;;;;;;;6133133;23;20028;-86
2023/02/14 04:48:20;;;;;;;35.83;25.05;;;;;;;;;;6155581;23;20017;-86
2023/02/14 04:50:51;;;;;;;32.72;24.33;;;;;;;;;;6132447;23;20487;-86
2023/02/14 04:53:18;;;;;;;35.47;21.52;;;;;;;;;;6182282;23;20020;-86
2023/02/14 04:55:45;;;;;;;26.95;20.30;;;;;;;;;;6133188;23;20024;-86
2023/02/14 04:58:16;;;;;;;30.67;22.02;;;;;;;;;;6155296;23;20024;-86
2023/02/14 05:00:44;;;;;;;28.15;20.95;;;;;;;;;;6159385;23;20013;-85
2023/02/14 05:03:11;;;;;;;34.60;20.38;;;;;;;;;;6183611;23;20344;-86
2023/02/14 05:05:38;;;;;;;28.92;19.02;;;;;;;;;;6158448;23;20410;-85
2023/02/14 05:08:08;;;;;;;27.92;19.05;;;;;;;;;;6133342;23;20020;-86
2023/02/14 05:10:35;;;;;;;30.10;19.77;;;;;;;;;;6133763;23;20013;-86
2023/02/14 05:13:02;;;;;;;31.27;21.23;;;;;;;;;;6132988;23;20021;-86
2023/02/14 05:15:31;;;;;;;36.60;22.83;;;;;;;;;;6185195;23;20013;-86
2023/02/14 05:18:01;;;;;;;32.13;20.05;;;;;;;;;;6168339;23;20016;-86
2023/02/14 05:20:29;;;;;;;31.00;21.90;;;;;;;;;;6186050;23;20032;-85
2023/02/14 05:22:58;;;;;;;32.08;20.85;;;;;;;;;;6133523;23;20476;-85
2023/02/14 05:25:25;;;;;;;25.17;19.27;;;;;;;;;;6185049;23;20017;-86
2023/02/14 05:27:53;;;;;;;35.42;21.67;;;;;;;;;;6193069;23;20013;-86
2023/02/14 05:30:25;;;;;;;31.15;21.88;;;;;;;;;;6185578;23;20017;-86
2023/02/14 05:32:56;;;;;;;34.40;21.48;;;;;;;;;;6161063;23;20028;-86
2023/02/14 05:35:23;;;;;;;31.13;20.27;;;;;;;;;;6184604;23;20025;-86
2023/02/14 05:37:50;;;;;;;34.83;23.17;;;;;;;;;;6158423;23;20017;-86
2023/02/14 05:40:18;;;;;;;33.10;20.73;;;;;;;;;;6185250;23;20009;-85
2023/02/14 05:42:45;;;;;;;29.55;20.35;;;;;;;;;;6187600;23;20026;-86
2023/02/14 05:45:14;;;;;;;34.47;22.02;;;;;;;;;;6184574;23;20609;-86
2023/02/14 05:47:44;;;;;;;27.90;18.90;;;;;;;;;;6168084;23;20016;-86
2023/02/14 05:50:13;;;;;;;36.40;21.48;;;;;;;;;;6186355;23;20013;-86
2023/02/14 05:52:40;;;;;;;28.02;18.50;;;;;;;;;;6133196;23;20483;-86
2023/02/14 05:55:08;;;;;;;28.60;19.63;;;;;;;;;;6194916;23;20028;-85
2023/02/14 05:57:35;;;;;;;31.08;22.55;;;;;;;;;;6182905;23;20013;-86
2023/02/14 06:00:06;;;;;;;38.65;22.77;;;;;;;;;;6134786;23;20024;-86
2023/02/14 06:02:39;;;;;;;29.80;20.02;;;;;;;;;;6187941;23;20017;-85
2023/02/14 06:05:08;;;;;;;26.50;20.67;;;;;;;;;;6193992;23;20020;-85
2023/02/14 06:07:41;;;;;;;32.13;21.58;;;;;;;;;;6158164;23;20348;-85
2023/02/14 06:10:11;;;;;;;27.88;21.48;;;;;;;;;;6133607;23;20024;-85
2023/02/14 06:12:38;;;;;;;30.45;21.42;;;;;;;;;;6157003;23;20020;-86
2023/02/14 06:15:08;;;;;;;37.28;24.02;;;;;;;;;;6159169;23;20360;-86
2023/02/14 06:17:38;;;;;;;38.28;24.92;;;;;;;;;;6184373;23;20013;-86
2023/02/14 06:20:08;;;;;;;34.35;23.48;;;;;;;;;;6195622;23;20020;-84
2023/02/14 06:22:39;;;;;;;34.00;24.27;;;;;;;;;;6162348;23;20365;-86
2023/02/14 06:25:09;;;;;;;36.45;24.25;;;;;;;;;;6158806;23;20024;-86
2023/02/14 06:27:39;;;;;;;40.42;25.05;;;;;;;;;;6156621;23;20348;-86
2023/02/14 06:30:07;;;;;;;31.45;23.65;;;;;;;;;;6182821;23;20013;-86
2023/02/14 06:32:35;;;;;;;38.95;24.20;;;;;;;;;;6149741;23;20025;-86
2023/02/14 06:35:05;;;;;;;34.10;25.05;;;;;;;;;;6176859;23;20021;-87
2023/02/14 06:37:32;;;;;;;46.67;27.98;;;;;;;;;;6177734;23;20028;-86
2023/02/14 06:40:01;;;;;;;41.50;24.52;;;;;;;;;;6159522;23;20020;-87
2023/02/14 06:42:28;;;;;;;34.25;26.40;;;;;;;;;;6149454;23;20017;-87
2023/02/14 06:44:55;;;;;;;37.35;26.23;;;;;;;;;;6149687;23;20014;-84
2023/02/14 06:47:23;;;;;;;30.02;19.92;;;;;;;;;;6147647;23;20027;-86
2023/02/14 06:49:52;;;;;;;39.15;23.85;;;;;;;;;;6148777;23;20353;-85
2023/02/14 06:52:20;;;;;;;31.30;20.95;;;;;;;;;;6143430;23;20357;-82
2023/02/14 06:54:47;;;;;;;32.08;21.15;;;;;;;;;;6119255;23;20021;-84
2023/02/14 06:57:16;;;;;;;32.58;21.27;;;;;;;;;;6144546;23;20025;-84
2023/02/14 06:59:43;;;;;;;35.53;23.13;;;;;;;;;;6148742;23;20354;-83
2023/02/14 07:02:11;;;;;;;35.80;23.35;;;;;;;;;;6153796;23;20044;-83
2023/02/14 07:04:38;;;;;;;41.78;24.33;;;;;;;;;;6150624;23;20026;-84
2023/02/14 07:07:06;;;;;;;31.90;22.80;;;;;;;;;;6151023;23;20021;-84
2023/02/14 07:09:33;;;;;;;36.38;24.60;;;;;;;;;;6152448;23;20022;-84
2023/02/14 07:12:00;;;;;;;36.13;20.30;;;;;;;;;;6152778;23;20017;-83
2023/02/14 07:14:29;;;;;;;38.55;25.13;;;;;;;;;;6153211;23;20013;-84
2023/02/14 07:16:56;;;;;;;31.23;23.38;;;;;;;;;;6153384;23;20033;-84
2023/02/14 07:19:24;;;;;;;39.75;24.63;;;;;;;;;;6153272;23;20020;-84
2023/02/14 07:21:51;;;;;;;37.10;25.73;;;;;;;;;;6152442;23;20354;-84
2023/02/14 07:24:19;;;;;;;33.53;22.38;;;;;;;;;;6176046;23;20018;-84
2023/02/14 07:26:46;;;;;;;36.22;25.40;;;;;;;;;;6150803;23;20397;-84
2023/02/14 07:29:13;;;;;;;36.28;23.92;;;;;;;;;;6152335;23;20017;-84
2023/02/14 07:31:42;;;;;;;34.20;23.00;;;;;;;;;;6125763;23;20354;-84
2023/02/14 07:34:09;;;;;;;31.70;22.35;;;;;;;;;;6151569;23;20353;-84
2023/02/14 07:36:37;;;;;;;32.25;24.05;;;;;;;;;;6151393;23;20465;-84
2023/02/14 07:39:05;;;;;;;36.30;24.40;;;;;;;;;;6162726;23;20014;-84
2023/02/14 07:41:32;;;;;;;32.28;20.73;;;;;;;;;;6127308;23;20024;-84
2023/02/14 07:43:59;;;;;;;40.55;24.88;;;;;;;;;;6153243;23;20033;-84
2023/02/14 07:46:27;;;;;;;36.88;22.65;;;;;;;;;;6126414;23;20349;-84
2023/02/14 07:49:17;;;;;;;33.38;23.65;;;;;;;;;;6154481;23;20025;-83
2023/02/14 07:51:44;;;;;;;31.60;24.17;;;;;;;;;;6161631;23;20066;-84
2023/02/14 07:54:11;;;;;;;40.30;25.10;;;;;;;;;;6150923;23;20190;-84
2023/02/14 07:56:39;;;;;;;29.83;21.80;;;;;;;;;;6151297;23;20017;-84
2023/02/14 07:59:06;;;;;;;36.83;23.67;;;;;;;;;;6126058;23;20028;-85
2023/02/14 08:01:33;;;;;;;33.92;22.73;;;;;;;;;;6152474;23;20017;-84
2023/02/14 08:04:01;;;;;;;38.08;23.50;;;;;;;;;;6127690;23;20029;-84
2023/02/14 08:06:30;;;;;;;33.95;24.23;;;;;;;;;;6150568;23;20724;-84
2023/02/14 08:08:57;;;;;;;32.15;23.20;;;;;;;;;;6152187;23;20335;-84
2023/02/14 08:14:09;;;;;;;43.35;25.60;;;;;;;;;;6163881;23;20468;-84
2023/02/14 08:16:37;;;;;;;38.25;25.75;;;;;;;;;;6153100;23;20024;-84
2023/02/14 08:19:05;;;;;;;36.50;25.23;;;;;;;;;;6174286;23;20018;-84
2023/02/14 08:21:34;;;;;;;35.83;23.15;;;;;;;;;;6127030;23;20045;-84
2023/02/14 08:24:01;;;;;;;34.72;23.50;;;;;;;;;;6153881;23;20457;-84
2023/02/14 08:26:29;;;;;;;35.92;24.05;;;;;;;;;;6127340;23;20017;-84
2023/02/14 08:28:56;;;;;;;33.08;24.42;;;;;;;;;;6152293;23;20017;-84
2023/02/14 08:31:25;;;;;;;37.42;25.20;;;;;;;;;;6152928;23;20013;-84
2023/02/14 08:33:52;;;;;;;31.88;23.52;;;;;;;;;;6151490;23;20021;-84
2023/02/14 08:36:20;;;;;;;33.95;24.38;;;;;;;;;;6164085;23;20390;-84
2023/02/14 08:38:48;;;;;;;36.25;23.52;;;;;;;;;;6125162;23;20457;-84
2023/02/14 08:41:16;;;;;;;34.85;21.38;;;;;;;;;;6153239;23;20338;-84
2023/02/14 08:43:44;;;;;;;36.42;24.75;;;;;;;;;;6151001;23;20469;-84
2023/02/14 08:46:13;;;;;;;35.88;24.08;;;;;;;;;;6153807;23;20037;-84
2023/02/14 08:48:41;;;;;;;31.38;23.05;;;;;;;;;;6151568;23;20013;-85
2023/02/14 08:51:10;;;;;;;32.85;23.58;;;;;;;;;;6153387;23;20013;-84
2023/02/14 08:53:38;;;;;;;34.03;24.63;;;;;;;;;;6125521;23;20028;-84
2023/02/14 08:56:09;;;;;;;35.10;22.83;;;;;;;;;;6153525;23;20013;-84
2023/02/14 08:58:37;;;;;;;36.75;21.90;;;;;;;;;;6160111;23;20013;-83
2023/02/14 09:01:08;;;;;;;40.28;23.77;;;;;;;;;;6153178;23;20024;-84
2023/02/14 09:03:35;;;;;;;33.08;24.33;;;;;;;;;;6125877;23;20022;-84
2023/02/14 09:06:03;;;;;;;37.58;22.77;;;;;;;;;;6153254;23;20024;-85
2023/02/14 09:08:33;;;;;;;36.20;25.88;;;;;;;;;;6150708;23;20014;-84
2023/02/14 09:11:08;;;;;;;30.95;23.65;;;;;;;;;;6151629;23;20014;-85
2023/02/14 09:13:35;;;;;;;35.08;20.38;;;;;;;;;;6152062;23;20029;-84
2023/02/14 09:16:04;;;;;;;35.20;25.30;;;;;;;;;;6152271;23;20029;-84
2023/02/14 09:18:31;;;;;;;32.95;23.60;;;;;;;;;;6152468;23;20017;-84
2023/02/14 09:20:58;;;;;;;36.03;22.23;;;;;;;;;;6150483;23;20013;-85
2023/02/14 09:23:26;;;;;;;37.38;23.35;;;;;;;;;;6152068;23;20449;-85
2023/02/14 09:26:00;;;;;;;34.53;23.95;;;;;;;;;;6153049;23;20018;-85
2023/02/14 09:28:29;;;;;;;33.83;24.60;;;;;;;;;;6162307;23;20462;-84
2023/02/14 09:30:57;;;;;;;32.05;23.30;;;;;;;;;;6152004;23;20441;-84
2023/02/14 09:33:24;;;;;;;38.65;24.40;;;;;;;;;;6152361;23;20024;-84
2023/02/14 09:38:33;;;;;;;36.35;24.55;;;;;;;;;;6042725;23;20408;-84
2023/02/14 09:41:05;;;;;;;32.17;24.85;;;;;;;;;;6150804;23;20029;-84
2023/02/14 09:43:38;;;;;;;35.88;22.92;;;;;;;;;;6151026;23;20022;-84
2023/02/14 09:46:07;;;;;;;37.78;21.73;;;;;;;;;;6153038;23;20024;-84
2023/02/14 09:48:36;;;;;;;35.05;20.08;;;;;;;;;;6153702;23;20017;-84
2023/02/14 09:51:05;;;;;;;31.42;21.60;;;;;;;;;;6162994;23;20440;-84
2023/02/14 09:53:35;;;;;;;31.73;22.52;;;;;;;;;;6155756;23;20492;-84
2023/02/14 09:56:07;;;;;;;28.45;21.58;;;;;;;;;;6128125;23;20021;-84
2023/02/14 09:58:38;;;;;;;33.47;22.73;;;;;;;;;;6164939;23;20018;-84
2023/02/14 10:01:11;;;;;;;31.40;21.92;;;;;;;;;;6163614;23;20020;-84
2023/02/14 10:04:18;;;;;;;42.42;24.05;;;;;;;;;;6152351;23;20017;-84
2023/02/14 10:06:49;;;;;;;27.33;22.30;;;;;;;;;;6128391;23;20029;-84
2023/02/14 10:09:36;;;;;;;31.70;21.92;;;;;;;;;;6151395;23;20026;-84
2023/02/14 10:12:04;;;;;;;32.53;24.65;;;;;;;;;;6161654;23;20025;-84
2023/02/14 10:14:39;;;;;;;32.35;21.27;;;;;;;;;;6152842;23;20338;-84
2023/02/14 10:17:09;;;;;;;41.83;24.60;;;;;;;;;;6152175;23;20018;-84
2023/02/14 10:19:40;;;;;;;36.95;24.27;;;;;;;;;;6152893;23;20028;-85
2023/02/14 10:22:12;;;;;;;30.00;22.20;;;;;;;;;;6146772;23;20017;-84
2023/02/14 10:24:43;;;;;;;31.58;22.90;;;;;;;;;;6150671;23;20508;-84
2023/02/14 10:27:15;;;;;;;;;;;;;;;;;;6150314;23;20021;-84
2023/02/14 10:29:44;;;;;;;28.30;20.23;;;;;;;;;;6126414;23;19917;-85
2023/02/14 10:32:13;;;;;;;33.40;20.48;;;;;;;;;;6151012;23;20013;-84
2023/02/14 10:34:46;;;;;;;30.52;18.63;;;;;;;;;;6153259;23;20035;-83
2023/02/14 10:37:39;;;;;;;30.80;23.27;;;;;;;;;;6161047;23;20013;-83
2023/02/14 10:40:27;;;;;;;32.47;22.52;;;;;;;;;;6163395;23;20346;-84
2023/02/14 10:43:00;;;;;;;26.63;20.92;;;;;;;;;;6157675;23;20017;-84
2023/02/14 10:45:34;;;;;;;30.27;21.45;;;;;;;;;;6152411;23;20017;-83
2023/02/14 10:48:07;;;;;;;29.13;20.50;;;;;;;;;;6161493;23;20013;-83
2023/02/14 10:50:40;;;;;;;33.33;22.48;;;;;;;;;;6164136;23;20017;-84
2023/02/14 10:53:13;;;;;;;29.23;20.92;;;;;;;;;;6126620;23;20014;-83
2023/02/14 10:55:43;;;;;;;;;;;;;;;;;;6128359;23;20022;-84
2023/02/14 10:58:12;;;;;;;29.48;20.98;;;;;;;;;;6152352;23;19923;-84
2023/02/14 11:00:47;;;;;;;30.42;21.15;;;;;;;;;;6152187;23;20013;-83
2023/02/14 11:03:14;;;;;;;31.20;22.30;;;;;;;;;;6151248;23;20327;-83
2023/02/14 11:05:43;;;;;;;31.02;21.83;;;;;;;;;;6128762;23;20022;-84
2023/02/14 11:08:14;;;;;;;28.70;21.23;;;;;;;;;;6127654;23;20032;-83
2023/02/14 11:10:42;;;;;;;26.00;16.83;;;;;;;;;;6162615;23;20025;-83
2023/02/14 11:13:31;;;;;;;28.45;22.83;;;;;;;;;;6122519;23;20280;-84
2023/02/14 11:16:02;;;;;;;32.20;22.30;;;;;;;;;;6152334;23;20017;-84
2023/02/14 11:18:32;;;;;;;28.40;19.20;;;;;;;;;;6140510;23;20045;-84
2023/02/14 11:21:01;;;;;;;29.08;22.45;;;;;;;;;;6117977;23;20117;-84
2023/02/14 11:23:33;;;;;;;28.63;21.48;;;;;;;;;;6119570;23;20018;-84
2023/02/14 11:26:02;;;;;;;32.20;20.17;;;;;;;;;;6154084;23;20021;-83
2023/02/14 11:28:29;;;;;;;29.10;21.05;;;;;;;;;;6145221;23;20021;-84
2023/02/14 11:30:57;;;;;;;30.90;21.30;;;;;;;;;;6118746;23;20029;-84
2023/02/14 11:33:34;;;;;;;31.48;20.70;;;;;;;;;;6118300;23;20028;-84
2023/02/14 11:36:03;;;;;;;28.80;20.75;;;;;;;;;;6142150;23;20440;-84
2023/02/14 11:38:33;;;;;;;29.77;21.58;;;;;;;;;;6150587;23;20013;-85
2023/02/14 11:41:01;;;;;;;29.27;20.80;;;;;;;;;;6149759;23;20022;-85
2023/02/14 11:43:33;;;;;;;32.25;22.55;;;;;;;;;;6122196;23;20017;-85
2023/02/14 11:46:07;;;;;;;30.52;19.95;;;;;;;;;;6161713;23;20357;-85
2023/02/14 11:48:36;;;;;;;29.83;21.75;;;;;;;;;;6159714;23;20010;-84
2023/02/14 11:51:05;;;;;;;27.77;21.17;;;;;;;;;;6152372;23;20025;-85
2023/02/14 11:53:40;;;;;;;32.63;21.05;;;;;;;;;;6151469;23;20010;-84
2023/02/14 11:56:07;;;;;;;26.90;22.52;;;;;;;;;;6127312;23;20033;-84
2023/02/14 11:58:37;;;;;;;24.10;18.85;;;;;;;;;;6153593;23;20337;-85
2023/02/14 12:01:05;;;;;;;28.13;21.15;;;;;;;;;;6151054;23;20014;-84
2023/02/14 12:03:38;;;;;;;29.33;22.77;;;;;;;;;;6149857;23;20013;-85
2023/02/14 12:06:05;;;;;;;29.63;20.67;;;;;;;;;;6125716;23;20485;-84
2023/02/14 12:08:36;;;;;;;30.50;20.98;;;;;;;;;;6149235;23;20025;-85
2023/02/14 12:11:05;;;;;;;29.65;19.48;;;;;;;;;;6173922;23;20013;-84
2023/02/14 12:13:32;;;;;;;32.78;22.23;;;;;;;;;;6148528;23;20017;-84
2023/02/14 12:16:00;;;;;;;32.70;20.45;;;;;;;;;;6149695;23;20014;-84
2023/02/14 12:18:43;;;;;;;26.95;19.90;;;;;;;;;;6149167;23;20338;-85
2023/02/14 12:21:20;;;;;;;32.78;21.98;;;;;;;;;;6134095;23;20013;-84
2023/02/14 12:23:55;;;;;;;35.22;22.17;;;;;;;;;;6150053;23;20021;-84
2023/02/14 12:26:28;;;;;;;27.27;21.90;;;;;;;;;;6160354;23;20353;-84
2023/02/14 12:29:00;;;;;;;26.73;19.02;;;;;;;;;;6162010;23;20020;-84
2023/02/14 12:31:27;;;;;;;50.22;33.55;;;;;;;;;;6123845;23;20049;-84
2023/02/14 12:33:56;;;;;;;30.60;19.75;;;;;;;;;;6122519;23;20020;-84
2023/02/14 12:36:38;;;;;;;26.05;18.58;;;;;;;;;;6151412;23;20018;-84
2023/02/14 12:39:12;;;;;;;28.45;21.27;;;;;;;;;;6162501;23;20025;-84
2023/02/14 12:41:45;;;;;;;31.23;22.38;;;;;;;;;;6160281;23;20468;-84
2023/02/14 12:44:20;;;;;;;37.25;20.60;;;;;;;;;;6162233;23;20014;-84
2023/02/14 12:47:02;;;;;;;27.42;20.50;;;;;;;;;;6125298;23;20465;-84
2023/02/14 12:49:53;;;;;;;28.27;21.38;;;;;;;;;;6160709;23;20446;-86
2023/02/14 17:43:40;;;;;;;24.67;17.23;;;;;;;;;;6158145;23;20021;-90
2023/02/14 17:46:08;;;;;;;21.50;16.30;;;;;;;;;;6157036;23;20031;-90
2023/02/14 17:48:35;;;;;;;22.73;15.55;;;;;;;;;;6154158;23;20018;-90
2023/02/14 17:51:04;;;;;;;27.02;17.42;;;;;;;;;;6166327;23;20460;-89
2023/02/14 17:53:32;;;;;;;26.60;15.75;;;;;;;;;;6154099;23;20041;-89
2023/02/14 17:56:04;;;;;;;27.00;19.60;;;;;;;;;;6153579;23;20446;-90
2023/02/14 17:58:31;;;;;;;21.60;15.57;;;;;;;;;;6163902;23;20024;-90
2023/02/14 18:01:03;;;;;;;29.05;18.33;;;;;;;;;;6163944;23;20020;-87
2023/02/14 18:03:31;;;;;;;31.02;17.95;;;;;;;;;;6157247;23;20014;-88
2023/02/14 18:05:58;;;;;;;23.23;16.65;;;;;;;;;;6161697;23;20021;-88
2023/02/14 18:08:27;;;;;;;22.30;15.50;;;;;;;;;;6149477;23;20018;-88
2023/02/14 18:10:54;;;;;;;26.70;18.63;;;;;;;;;;6152318;23;20025;-89
2023/02/14 18:13:22;;;;;;;28.08;18.42;;;;;;;;;;6152534;23;20014;-88
2023/02/14 18:15:50;;;;;;;29.77;16.75;;;;;;;;;;6162763;23;20464;-88
2023/02/14 18:18:18;;;;;;;36.75;22.65;;;;;;;;;;6151875;23;20025;-88
2023/02/14 18:20:52;;;;;;;32.38;21.38;;;;;;;;;;6152721;23;20021;-89
2023/02/14 18:23:19;;;;;;;;;;;;;;;;;;6154946;23;20021;-89
2023/02/14 18:25:49;;;;;;;23.20;16.40;;;;;;;;;;6152697;23;19917;-89
2023/02/14 18:28:17;;;;;;;27.05;17.00;;;;;;;;;;6126330;23;20025;-89
2023/02/14 18:30:44;;;;;;;25.92;13.98;;;;;;;;;;6154042;23;20037;-89
2023/02/14 18:33:12;;;;;;;28.92;18.48;;;;;;;;;;6151851;23;20017;-88
2023/02/14 18:35:40;;;;;;;30.10;21.27;;;;;;;;;;6155262;23;20021;-89
2023/02/14 18:38:09;;;;;;;23.38;17.92;;;;;;;;;;6155616;23;20065;-87
2023/02/14 18:40:37;;;;;;;26.77;17.25;;;;;;;;;;6191357;23;20053;-88
2023/02/14 18:43:07;;;;;;;23.23;14.63;;;;;;;;;;6166844;23;20024;-89
2023/02/14 18:45:35;;;;;;;28.15;16.70;;;;;;;;;;6160891;23;20010;-89
2023/02/14 18:48:04;;;;;;;19.58;15.38;;;;;;;;;;6145260;23;20026;-89
2023/02/14 18:50:33;;;;;;;28.88;18.15;;;;;;;;;;6154086;23;20021;-88
2023/02/14 18:53:01;;;;;;;25.05;16.52;;;;;;;;;;6141406;23;20028;-81
2023/02/14 18:55:31;;;;;;;25.95;16.55;;;;;;;;;;6153965;23;20300;-83
2023/02/14 18:57:58;;;;;;;25.00;17.45;;;;;;;;;;6117462;23;20029;-82
2023/02/14 19:00:26;;;;;;;24.45;17.23;;;;;;;;;;6120380;23;20017;-83
2023/02/14 19:02:53;;;;;;;29.77;20.70;;;;;;;;;;6119353;23;20022;-83
2023/02/14 19:05:20;;;;;;;23.70;17.38;;;;;;;;;;6144514;23;20025;-83
2023/02/14 19:07:47;;;;;;;22.58;16.15;;;;;;;;;;6094630;23;20482;-83
2023/02/14 19:10:16;;;;;;;24.27;17.17;;;;;;;;;;6154136;23;20025;-83
2023/02/14 19:12:46;;;;;;;28.15;19.40;;;;;;;;;;6153935;23;20032;-83
2023/02/14 19:15:17;;;;;;;28.60;17.70;;;;;;;;;;6118217;23;20504;-83
2023/02/14 19:17:45;;;;;;;24.00;16.63;;;;;;;;;;6118152;23;20025;-83
2023/02/14 19:20:13;;;;;;;25.50;16.55;;;;;;;;;;6092848;23;20473;-83
2023/02/14 19:22:41;;;;;;;26.35;19.90;;;;;;;;;;6127062;23;20024;-83
2023/02/14 19:25:08;;;;;;;32.42;23.35;;;;;;;;;;6117772;23;20464;-83
2023/02/14 19:27:39;;;;;;;26.00;17.80;;;;;;;;;;6092920;23;20033;-83
2023/02/14 19:30:10;;;;;;;28.52;19.90;;;;;;;;;;6154873;23;20465;-83
2023/02/14 19:32:37;;;;;;;26.08;18.88;;;;;;;;;;6142668;23;20026;-83
2023/02/14 19:35:05;;;;;;;35.75;24.45;;;;;;;;;;6143828;23;20014;-83
2023/02/14 19:37:32;;;;;;;31.80;22.60;;;;;;;;;;6117347;23;20021;-83
2023/02/14 19:40:00;;;;;;;29.77;21.52;;;;;;;;;;6142489;23;20025;-83
2023/02/14 19:42:29;;;;;;;26.42;18.52;;;;;;;;;;6116605;23;20028;-82
2023/02/14 19:44:58;;;;;;;27.17;18.08;;;;;;;;;;6153217;23;20014;-82
2023/02/14 19:47:27;;;;;;;25.65;20.45;;;;;;;;;;6094401;23;20025;-83